createdAt,value
2023-06-30T00:04:25.145Z,101535.84
2023-06-30T00:09:29.095Z,101531.13
2023-06-30T00:14:32.120Z,101521.34
2023-06-30T00:19:36.857Z,101512.31
2023-06-30T00:24:39.964Z,101499.81
2023-06-30T00:29:43.038Z,101496.09
2023-06-30T00:34:47.823Z,101513.66
2023-06-30T00:39:52.254Z,101511.88
2023-06-30T00:44:55.262Z,101510.88
2023-06-30T00:49:59.866Z,101516.16
2023-06-30T00:55:03.344Z,101510.00
2023-06-30T01:00:16.733Z,101519.59
2023-06-30T01:05:32.407Z,101515.19
2023-06-30T01:10:37.225Z,101516.81
2023-06-30T01:15:43.338Z,101511.38
2023-06-30T01:20:48.467Z,101513.91
2023-06-30T01:25:52.551Z,101512.09
2023-06-30T01:30:56.120Z,101495.91
2023-06-30T01:36:00.802Z,101517.91
2023-06-30T01:41:06.072Z,101511.53
2023-06-30T01:46:09.266Z,101505.03
2023-06-30T01:51:16.030Z,101506.91
2023-06-30T01:56:20.308Z,101516.56
2023-06-30T02:01:23.910Z,101500.47
2023-06-30T02:06:28.317Z,101494.03
2023-06-30T02:11:31.491Z,101493.06
2023-06-30T02:16:35.584Z,101487.72
2023-06-30T02:21:40.219Z,101492.88
2023-06-30T02:26:43.170Z,101491.19
2023-06-30T02:31:46.351Z,101492.63
2023-06-30T02:36:51.655Z,101499.69
2023-06-30T02:41:54.749Z,101490.59
2023-06-30T02:46:57.934Z,101495.88
2023-06-30T02:52:02.847Z,101502.75
2023-06-30T02:57:06.851Z,101500.19
2023-06-30T03:02:10.650Z,101502.81
2023-06-30T03:07:15.639Z,101493.88
2023-06-30T03:12:19.740Z,101509.72
2023-06-30T03:17:23.219Z,101503.44
2023-06-30T03:22:29.187Z,101502.44
2023-06-30T03:27:32.743Z,101505.16
2023-06-30T03:32:35.850Z,101482.63
2023-06-30T03:37:40.341Z,101507.72
2023-06-30T03:42:43.809Z,101502.44
2023-06-30T03:47:47.419Z,101497.13
2023-06-30T03:52:52.665Z,101506.13
2023-06-30T03:57:55.728Z,101507.97
2023-06-30T04:02:58.929Z,101503.56
2023-06-30T04:08:03.627Z,101503.75
2023-06-30T04:13:08.318Z,101505.66
2023-06-30T04:18:11.467Z,101495.19
2023-06-30T04:23:15.861Z,101491.66
2023-06-30T04:28:18.927Z,101497.81
2023-06-30T04:33:21.992Z,101485.53
2023-06-30T04:38:26.581Z,101508.63
2023-06-30T04:43:29.750Z,101488.44
2023-06-30T04:48:32.701Z,101488.66
2023-06-30T04:53:40.192Z,101491.50
2023-06-30T04:58:43.260Z,101495.31
2023-06-30T05:03:46.315Z,101495.44
2023-06-30T05:08:50.786Z,101489.34
2023-06-30T05:13:53.961Z,101476.19
2023-06-30T05:18:56.963Z,101496.13
2023-06-30T05:24:01.416Z,101494.56
2023-06-30T05:29:07.555Z,101501.78
2023-06-30T05:34:16.624Z,101496.50
2023-06-30T05:39:21.439Z,101506.53
2023-06-30T05:44:24.785Z,101475.63
2023-06-30T05:49:28.822Z,101492.88
2023-06-30T05:54:33.474Z,101498.41
2023-06-30T05:59:36.447Z,101501.28
2023-06-30T06:04:39.675Z,101497.16
2023-06-30T06:09:44.118Z,101487.66
2023-06-30T06:14:47.604Z,101493.16
2023-06-30T06:19:50.671Z,101484.34
2023-06-30T06:24:55.088Z,101490.91
2023-06-30T06:29:58.100Z,101490.31
2023-06-30T06:35:01.272Z,101485.13
2023-06-30T06:40:06.880Z,101493.28
2023-06-30T06:45:10.314Z,101492.59
2023-06-30T06:50:13.492Z,101489.28
2023-06-30T06:55:17.959Z,101477.84
2023-06-30T07:00:21.653Z,101490.59
2023-06-30T07:05:24.717Z,101496.13
2023-06-30T07:10:30.805Z,101493.72
2023-06-30T07:15:35.561Z,101495.75
2023-06-30T07:20:38.653Z,101488.94
2023-06-30T07:25:43.430Z,101496.69
2023-06-30T07:30:46.544Z,101495.66
2023-06-30T07:35:50.034Z,101486.59
2023-06-30T07:40:57.225Z,101488.84
2023-06-30T07:46:00.847Z,101501.31
2023-06-30T07:51:09.233Z,101465.63
2023-06-30T07:56:14.475Z,101479.38
2023-06-30T08:01:17.744Z,101486.44
2023-06-30T08:06:20.994Z,101473.13
2023-06-30T08:11:26.774Z,101479.44
2023-06-30T08:16:30.190Z,101482.97
2023-06-30T08:21:33.240Z,101485.75
2023-06-30T08:26:37.830Z,101489.47
2023-06-30T08:31:40.940Z,101481.44
2023-06-30T08:36:43.992Z,101477.84
2023-06-30T08:41:51.491Z,101479.66
2023-06-30T08:46:55.862Z,101464.41
2023-06-30T08:52:00.602Z,101435.72
2023-06-30T08:57:07.071Z,101452.38
2023-06-30T09:02:10.480Z,101444.09
2023-06-30T09:07:22.797Z,101443.94
2023-06-30T09:12:28.893Z,101434.41
2023-06-30T09:17:33.434Z,101423.34
2023-06-30T09:22:55.261Z,101428.69
2023-06-30T09:28:01.147Z,101429.09
2023-06-30T09:33:04.659Z,101420.19
2023-06-30T09:38:12.505Z,101423.47
2023-06-30T09:43:20.064Z,101424.19
2023-06-30T09:48:23.168Z,101412.84
2023-06-30T09:53:26.308Z,101424.19
2023-06-30T09:58:32.002Z,101417.00
2023-06-30T10:03:35.325Z,101418.66
2023-06-30T10:08:38.534Z,101412.59
2023-06-30T10:13:45.126Z,101426.00
2023-06-30T10:18:49.640Z,101421.28
2023-06-30T10:23:54.408Z,101415.28
2023-06-30T10:28:59.448Z,101395.00
2023-06-30T10:34:03.227Z,101383.75
2023-06-30T10:39:06.831Z,101387.28
2023-06-30T10:44:11.664Z,101376.94
2023-06-30T10:49:19.535Z,101367.84
2023-06-30T10:54:24.712Z,101372.91
2023-06-30T10:59:38.094Z,101368.47
2023-06-30T11:04:42.109Z,101363.25
2023-06-30T11:10:07.299Z,101378.72
2023-06-30T11:15:27.009Z,101365.38
2023-06-30T11:20:31.201Z,101354.44
2023-06-30T11:25:35.511Z,101366.19
2023-06-30T11:30:40.972Z,101354.00
2023-06-30T11:35:44.774Z,101341.19
2023-06-30T11:40:49.612Z,101341.44
2023-06-30T11:46:02.891Z,101339.50
2023-06-30T11:51:06.824Z,101346.06
2023-06-30T11:56:09.953Z,101339.53
2023-06-30T12:01:14.456Z,101340.13
2023-06-30T12:06:19.691Z,101323.91
2023-06-30T12:11:25.224Z,101328.97
2023-06-30T12:16:41.140Z,101331.06
2023-06-30T12:21:54.684Z,101329.69
2023-06-30T12:26:57.977Z,101317.31
2023-06-30T12:32:02.743Z,101309.41
2023-06-30T12:37:06.719Z,101301.41
2023-06-30T12:42:12.356Z,101301.97
2023-06-30T12:47:16.953Z,101290.16
2023-06-30T12:52:20.391Z,101284.13
2023-06-30T12:57:23.419Z,101281.00
2023-06-30T13:02:28.130Z,101262.34
2023-06-30T13:07:33.438Z,101265.78
2023-06-30T13:12:41.103Z,101269.31
2023-06-30T13:17:45.596Z,101260.94
2023-06-30T13:23:07.920Z,101248.25
2023-06-30T13:28:12.464Z,101238.03
2023-06-30T13:33:16.999Z,101228.00
2023-06-30T13:38:20.039Z,101224.34
2023-06-30T13:43:24.227Z,101228.41
2023-06-30T13:48:28.681Z,101223.19
2023-06-30T13:53:32.185Z,101197.94
2023-06-30T13:58:35.373Z,101207.38
2023-06-30T14:03:41.441Z,101204.72
2023-06-30T14:08:44.601Z,101200.63
2023-06-30T14:13:47.629Z,101191.97
2023-06-30T14:18:52.091Z,101184.63
2023-06-30T14:23:55.156Z,101182.50
2023-06-30T14:28:58.259Z,101169.72
2023-06-30T14:34:02.792Z,101170.41
2023-06-30T14:39:05.911Z,101168.56
2023-06-30T14:44:09.030Z,101168.88
2023-06-30T14:49:13.427Z,101177.84
2023-06-30T14:54:16.722Z,101169.19
2023-06-30T14:59:19.738Z,101158.66
2023-06-30T15:04:24.201Z,101157.56
2023-06-30T15:09:27.695Z,101159.94
2023-06-30T15:14:31.392Z,101145.63
2023-06-30T15:19:36.348Z,101142.38
2023-06-30T15:24:39.571Z,101145.66
2023-06-30T15:29:42.587Z,101134.78
2023-06-30T15:34:47.207Z,101138.78
2023-06-30T15:39:50.401Z,101127.25
2023-06-30T15:44:53.539Z,101113.69
2023-06-30T15:49:58.337Z,101118.78
2023-06-30T15:55:09.943Z,101111.16
2023-06-30T16:00:14.142Z,101100.78
2023-06-30T16:05:21.660Z,101106.72
2023-06-30T16:10:24.892Z,101096.94
2023-06-30T16:15:27.976Z,101085.00
2023-06-30T16:20:32.556Z,101079.38
2023-06-30T16:25:36.040Z,101078.34
2023-06-30T16:30:39.758Z,101080.25
2023-06-30T16:35:44.594Z,101068.06
2023-06-30T16:40:49.561Z,101076.00
2023-06-30T16:45:55.823Z,101068.09
2023-06-30T16:51:00.203Z,101064.44
2023-06-30T16:56:03.505Z,101073.13
2023-06-30T17:01:06.802Z,101083.47
2023-06-30T17:06:11.339Z,101083.94
2023-06-30T17:11:14.515Z,101075.41
2023-06-30T17:16:17.667Z,101078.00
2023-06-30T17:21:22.136Z,101084.41
2023-06-30T17:26:25.191Z,101094.91
2023-06-30T17:31:28.337Z,101080.72
2023-06-30T17:36:33.018Z,101085.63
2023-06-30T17:41:36.099Z,101081.28
2023-06-30T17:46:39.113Z,101086.63
2023-06-30T17:51:43.670Z,101074.81
2023-06-30T17:56:47.164Z,101062.34
2023-06-30T18:01:50.652Z,101063.41
2023-06-30T18:07:12.564Z,101058.22
2023-06-30T18:12:16.329Z,101058.06
2023-06-30T18:17:19.663Z,101051.88
2023-06-30T18:22:26.735Z,101057.53
2023-06-30T18:27:30.021Z,101054.16
2023-06-30T18:32:33.145Z,101051.53
2023-06-30T18:37:37.797Z,101047.91
2023-06-30T18:42:41.318Z,101045.50
2023-06-30T18:47:46.610Z,101045.50
2023-06-30T18:52:51.166Z,101042.88
2023-06-30T18:57:54.333Z,101034.81
2023-06-30T19:02:57.494Z,101036.50
2023-06-30T19:08:02.036Z,101033.88
2023-06-30T19:13:05.351Z,101027.66
2023-06-30T19:18:08.606Z,101010.09
2023-06-30T19:23:13.890Z,101022.56
2023-06-30T19:28:17.095Z,101034.09
2023-06-30T19:33:21.142Z,101031.47
2023-06-30T19:38:25.707Z,101030.75
2023-06-30T19:43:28.946Z,101034.31
2023-06-30T19:48:32.283Z,101036.97
2023-06-30T19:53:36.852Z,101029.06
2023-06-30T19:58:40.040Z,101018.44
2023-06-30T20:03:43.313Z,101004.19
2023-06-30T20:08:48.719Z,101003.31
2023-06-30T20:13:51.808Z,100993.53
2023-06-30T20:18:54.937Z,100995.38
2023-06-30T20:23:59.440Z,100982.94
2023-06-30T20:29:02.621Z,100979.41
2023-06-30T20:34:05.838Z,100980.28
2023-06-30T20:39:10.323Z,100979.47
2023-06-30T20:44:15.775Z,100969.69
2023-06-30T20:49:20.612Z,100951.06
2023-06-30T20:54:25.254Z,100962.66
2023-06-30T20:59:28.859Z,100960.84
2023-06-30T21:04:31.983Z,100952.84
2023-06-30T21:09:37.315Z,100944.91
2023-06-30T21:14:40.431Z,100940.47
2023-06-30T21:19:43.588Z,100936.03
2023-06-30T21:24:48.048Z,100929.81
2023-06-30T21:29:53.351Z,100920.91
2023-06-30T21:34:56.381Z,100918.25
2023-06-30T21:40:02.282Z,100903.16
2023-06-30T21:45:06.503Z,100890.72
2023-06-30T21:50:11.565Z,100881.81
2023-06-30T21:55:16.187Z,100864.06
2023-06-30T22:00:20.121Z,100865.88
2023-06-30T22:05:23.276Z,100857.84
2023-06-30T22:10:27.817Z,100850.78
2023-06-30T22:15:31.041Z,100848.13
2023-06-30T22:20:34.384Z,100848.09
2023-06-30T22:25:38.886Z,100846.34
2023-06-30T22:30:42.000Z,100833.91
2023-06-30T22:35:44.979Z,100826.84
2023-06-30T22:40:49.564Z,100827.69
2023-06-30T22:45:53.318Z,100823.28
2023-06-30T22:50:56.382Z,100779.81
2023-06-30T22:56:00.750Z,100814.41
2023-06-30T23:01:06.496Z,100809.09
2023-06-30T23:06:09.652Z,100797.53
2023-06-30T23:11:14.417Z,100787.75
2023-06-30T23:16:17.497Z,100791.34
2023-06-30T23:21:20.754Z,100780.69
2023-06-30T23:26:25.332Z,100783.34
2023-06-30T23:31:34.396Z,100763.84
2023-06-30T23:36:37.480Z,100763.84
2023-06-30T23:41:41.947Z,100754.06
2023-06-30T23:46:44.932Z,100751.41
2023-06-30T23:51:48.075Z,100743.44
2023-06-30T23:56:52.465Z,100742.59
